sensor_id;sensor_type;location;lat;lon;timestamp;temperature;humidity
26623;DHT22;14254;50.968;5.366;2023-08-30T00:00:13;13.50;99.90
26623;DHT22;14254;50.968;5.366;2023-08-30T00:02:39;13.60;99.90
26623;DHT22;14254;50.968;5.366;2023-08-30T00:05:05;13.50;99.90
26623;DHT22;14254;50.968;5.366;2023-08-30T00:07:31;13.50;99.90
26623;DHT22;14254;50.968;5.366;2023-08-30T00:09:58;13.40;99.90
26623;DHT22;14254;50.968;5.366;2023-08-30T00:12:25;13.20;99.90
26623;DHT22;14254;50.968;5.366;2023-08-30T00:14:51;13.10;99.90
26623;DHT22;14254;50.968;5.366;2023-08-30T00:17:16;13.00;99.90
26623;DHT22;14254;50.968;5.366;2023-08-30T00:19:42;13.00;99.90
26623;DHT22;14254;50.968;5.366;2023-08-30T00:22:08;12.80;99.90
26623;DHT22;14254;50.968;5.366;2023-08-30T00:24:34;12.90;99.90
26623;DHT22;14254;50.968;5.366;2023-08-30T00:27:01;12.80;99.90
26623;DHT22;14254;50.968;5.366;2023-08-30T00:29:28;12.90;99.90
26623;DHT22;14254;50.968;5.366;2023-08-30T00:31:53;13.00;99.90
26623;DHT22;14254;50.968;5.366;2023-08-30T00:34:19;13.20;99.90
26623;DHT22;14254;50.968;5.366;2023-08-30T00:36:45;13.40;99.90
26623;DHT22;14254;50.968;5.366;2023-08-30T00:39:10;13.50;99.90
26623;DHT22;14254;50.968;5.366;2023-08-30T00:41:36;13.60;99.90
26623;DHT22;14254;50.968;5.366;2023-08-30T00:44:02;13.50;99.90
26623;DHT22;14254;50.968;5.366;2023-08-30T00:46:28;13.60;99.90
26623;DHT22;14254;50.968;5.366;2023-08-30T00:48:54;13.80;99.90
26623;DHT22;14254;50.968;5.366;2023-08-30T00:51:20;13.90;99.90
26623;DHT22;14254;50.968;5.366;2023-08-30T00:53:48;14.00;99.90
26623;DHT22;14254;50.968;5.366;2023-08-30T00:56:14;14.10;99.90
26623;DHT22;14254;50.968;5.366;2023-08-30T00:58:40;13.90;99.90
26623;DHT22;14254;50.968;5.366;2023-08-30T01:01:06;13.90;99.90
26623;DHT22;14254;50.968;5.366;2023-08-30T01:03:34;14.00;99.90
26623;DHT22;14254;50.968;5.366;2023-08-30T01:06:00;14.20;99.90
26623;DHT22;14254;50.968;5.366;2023-08-30T01:08:27;14.40;99.90
26623;DHT22;14254;50.968;5.366;2023-08-30T01:13:30;14.60;99.90
26623;DHT22;14254;50.968;5.366;2023-08-30T01:15:57;14.60;99.90
26623;DHT22;14254;50.968;5.366;2023-08-30T01:18:26;14.60;99.90
26623;DHT22;14254;50.968;5.366;2023-08-30T01:20:53;14.70;99.90
26623;DHT22;14254;50.968;5.366;2023-08-30T01:23:42;14.60;99.90
26623;DHT22;14254;50.968;5.366;2023-08-30T01:26:20;14.60;99.90
26623;DHT22;14254;50.968;5.366;2023-08-30T01:28:50;14.60;99.90
26623;DHT22;14254;50.968;5.366;2023-08-30T01:31:17;14.60;99.90
26623;DHT22;14254;50.968;5.366;2023-08-30T01:33:44;14.50;99.90
26623;DHT22;14254;50.968;5.366;2023-08-30T01:36:11;14.30;99.90
26623;DHT22;14254;50.968;5.366;2023-08-30T01:38:38;14.40;99.90
26623;DHT22;14254;50.968;5.366;2023-08-30T01:41:04;14.50;99.90
26623;DHT22;14254;50.968;5.366;2023-08-30T01:43:30;14.60;99.90
26623;DHT22;14254;50.968;5.366;2023-08-30T01:45:58;14.70;99.90
26623;DHT22;14254;50.968;5.366;2023-08-30T01:48:26;14.70;99.90
26623;DHT22;14254;50.968;5.366;2023-08-30T01:50:53;14.80;99.90
26623;DHT22;14254;50.968;5.366;2023-08-30T01:53:24;14.70;99.90
26623;DHT22;14254;50.968;5.366;2023-08-30T01:55:50;14.80;99.90
26623;DHT22;14254;50.968;5.366;2023-08-30T01:58:16;14.70;99.90
26623;DHT22;14254;50.968;5.366;2023-08-30T02:00:41;14.70;99.90
26623;DHT22;14254;50.968;5.366;2023-08-30T02:03:12;14.70;99.90
26623;DHT22;14254;50.968;5.366;2023-08-30T02:05:57;14.80;99.90
26623;DHT22;14254;50.968;5.366;2023-08-30T02:08:29;14.80;99.90
26623;DHT22;14254;50.968;5.366;2023-08-30T02:10:56;14.90;99.90
26623;DHT22;14254;50.968;5.366;2023-08-30T02:13:26;14.80;99.90
26623;DHT22;14254;50.968;5.366;2023-08-30T02:15:54;14.80;99.90
26623;DHT22;14254;50.968;5.366;2023-08-30T02:18:20;14.80;99.90
26623;DHT22;14254;50.968;5.366;2023-08-30T02:20:46;14.90;99.90
26623;DHT22;14254;50.968;5.366;2023-08-30T02:23:12;14.90;99.90
26623;DHT22;14254;50.968;5.366;2023-08-30T02:25:38;14.90;99.90
26623;DHT22;14254;50.968;5.366;2023-08-30T02:28:04;15.00;99.90
26623;DHT22;14254;50.968;5.366;2023-08-30T02:30:29;15.00;99.90
26623;DHT22;14254;50.968;5.366;2023-08-30T02:32:55;15.00;99.90
26623;DHT22;14254;50.968;5.366;2023-08-30T02:35:21;15.00;99.90
26623;DHT22;14254;50.968;5.366;2023-08-30T02:37:46;15.00;99.90
26623;DHT22;14254;50.968;5.366;2023-08-30T02:40:12;14.90;99.90
26623;DHT22;14254;50.968;5.366;2023-08-30T02:42:38;14.90;99.90
26623;DHT22;14254;50.968;5.366;2023-08-30T02:45:03;14.90;99.90
26623;DHT22;14254;50.968;5.366;2023-08-30T02:47:29;14.90;99.90
26623;DHT22;14254;50.968;5.366;2023-08-30T02:49:55;14.90;99.90
26623;DHT22;14254;50.968;5.366;2023-08-30T02:52:21;14.80;99.90
26623;DHT22;14254;50.968;5.366;2023-08-30T02:54:46;14.80;99.90
26623;DHT22;14254;50.968;5.366;2023-08-30T02:57:12;14.80;99.90
26623;DHT22;14254;50.968;5.366;2023-08-30T02:59:37;14.80;99.90
26623;DHT22;14254;50.968;5.366;2023-08-30T03:02:03;14.70;99.90
26623;DHT22;14254;50.968;5.366;2023-08-30T03:04:29;14.90;99.90
26623;DHT22;14254;50.968;5.366;2023-08-30T03:06:54;14.90;99.90
26623;DHT22;14254;50.968;5.366;2023-08-30T03:09:20;14.90;99.90
26623;DHT22;14254;50.968;5.366;2023-08-30T03:11:46;14.90;99.90
26623;DHT22;14254;50.968;5.366;2023-08-30T03:14:11;15.00;99.90
26623;DHT22;14254;50.968;5.366;2023-08-30T03:16:37;15.00;99.90
26623;DHT22;14254;50.968;5.366;2023-08-30T03:19:03;15.00;99.90
26623;DHT22;14254;50.968;5.366;2023-08-30T03:21:28;14.90;99.90
26623;DHT22;14254;50.968;5.366;2023-08-30T03:23:54;14.90;99.90
26623;DHT22;14254;50.968;5.366;2023-08-30T03:26:20;14.90;99.90
26623;DHT22;14254;50.968;5.366;2023-08-30T03:28:45;15.00;99.90
26623;DHT22;14254;50.968;5.366;2023-08-30T03:31:21;15.00;99.90
26623;DHT22;14254;50.968;5.366;2023-08-30T03:33:48;14.90;99.90
26623;DHT22;14254;50.968;5.366;2023-08-30T03:36:15;14.90;99.90
26623;DHT22;14254;50.968;5.366;2023-08-30T03:38:42;15.00;99.90
26623;DHT22;14254;50.968;5.366;2023-08-30T03:41:09;14.90;99.90
26623;DHT22;14254;50.968;5.366;2023-08-30T03:43:35;14.90;99.90
26623;DHT22;14254;50.968;5.366;2023-08-30T03:46:01;15.00;99.90
26623;DHT22;14254;50.968;5.366;2023-08-30T03:48:28;15.10;99.90
26623;DHT22;14254;50.968;5.366;2023-08-30T03:50:54;15.20;99.90
26623;DHT22;14254;50.968;5.366;2023-08-30T03:53:20;15.10;99.90
26623;DHT22;14254;50.968;5.366;2023-08-30T03:55:46;15.20;99.90
26623;DHT22;14254;50.968;5.366;2023-08-30T03:58:12;15.20;99.90
26623;DHT22;14254;50.968;5.366;2023-08-30T04:00:38;15.20;99.90
26623;DHT22;14254;50.968;5.366;2023-08-30T04:03:08;15.10;99.90
26623;DHT22;14254;50.968;5.366;2023-08-30T04:05:38;15.10;99.90
26623;DHT22;14254;50.968;5.366;2023-08-30T04:08:06;15.00;99.90
26623;DHT22;14254;50.968;5.366;2023-08-30T04:10:36;15.10;99.90
26623;DHT22;14254;50.968;5.366;2023-08-30T04:13:02;14.90;99.90
26623;DHT22;14254;50.968;5.366;2023-08-30T04:15:38;14.90;99.90
26623;DHT22;14254;50.968;5.366;2023-08-30T04:18:05;15.00;99.90
26623;DHT22;14254;50.968;5.366;2023-08-30T04:20:32;15.00;99.90
26623;DHT22;14254;50.968;5.366;2023-08-30T04:22:58;15.00;99.90
26623;DHT22;14254;50.968;5.366;2023-08-30T04:25:27;14.90;99.90
26623;DHT22;14254;50.968;5.366;2023-08-30T04:27:53;14.80;99.90
26623;DHT22;14254;50.968;5.366;2023-08-30T04:30:18;14.50;99.90
26623;DHT22;14254;50.968;5.366;2023-08-30T04:32:44;14.50;99.90
26623;DHT22;14254;50.968;5.366;2023-08-30T04:35:10;14.50;99.90
26623;DHT22;14254;50.968;5.366;2023-08-30T04:37:36;14.50;99.90
26623;DHT22;14254;50.968;5.366;2023-08-30T04:40:04;14.50;99.90
26623;DHT22;14254;50.968;5.366;2023-08-30T04:42:30;14.60;99.90
26623;DHT22;14254;50.968;5.366;2023-08-30T04:44:55;14.70;99.90
26623;DHT22;14254;50.968;5.366;2023-08-30T04:47:21;14.70;99.90
26623;DHT22;14254;50.968;5.366;2023-08-30T04:49:53;14.70;99.90
26623;DHT22;14254;50.968;5.366;2023-08-30T04:52:19;14.60;99.90
26623;DHT22;14254;50.968;5.366;2023-08-30T04:54:45;14.50;99.90
26623;DHT22;14254;50.968;5.366;2023-08-30T04:57:11;14.40;99.90
26623;DHT22;14254;50.968;5.366;2023-08-30T04:59:40;14.50;99.90
26623;DHT22;14254;50.968;5.366;2023-08-30T05:02:06;14.40;99.90
26623;DHT22;14254;50.968;5.366;2023-08-30T05:04:32;14.40;99.90
26623;DHT22;14254;50.968;5.366;2023-08-30T05:06:57;14.50;99.90
26623;DHT22;14254;50.968;5.366;2023-08-30T05:09:23;14.50;99.90
26623;DHT22;14254;50.968;5.366;2023-08-30T05:11:51;14.40;99.90
26623;DHT22;14254;50.968;5.366;2023-08-30T05:14:17;14.40;99.90
26623;DHT22;14254;50.968;5.366;2023-08-30T05:16:42;14.50;99.90
26623;DHT22;14254;50.968;5.366;2023-08-30T05:19:08;14.60;99.90
26623;DHT22;14254;50.968;5.366;2023-08-30T05:21:33;14.70;99.90
26623;DHT22;14254;50.968;5.366;2023-08-30T05:23:59;14.80;99.90
26623;DHT22;14254;50.968;5.366;2023-08-30T05:26:25;15.00;99.90
26623;DHT22;14254;50.968;5.366;2023-08-30T05:28:50;15.10;99.90
26623;DHT22;14254;50.968;5.366;2023-08-30T05:31:16;15.10;99.90
26623;DHT22;14254;50.968;5.366;2023-08-30T05:33:42;15.10;99.90
26623;DHT22;14254;50.968;5.366;2023-08-30T05:36:07;15.00;99.90
26623;DHT22;14254;50.968;5.366;2023-08-30T05:38:33;14.90;99.90
26623;DHT22;14254;50.968;5.366;2023-08-30T05:40:58;14.90;99.90
26623;DHT22;14254;50.968;5.366;2023-08-30T05:43:24;14.90;99.90
26623;DHT22;14254;50.968;5.366;2023-08-30T05:45:50;14.90;99.90
26623;DHT22;14254;50.968;5.366;2023-08-30T05:48:15;14.90;99.90
26623;DHT22;14254;50.968;5.366;2023-08-30T05:50:41;15.00;99.90
26623;DHT22;14254;50.968;5.366;2023-08-30T05:53:07;15.00;99.90
26623;DHT22;14254;50.968;5.366;2023-08-30T05:55:33;15.20;99.90
26623;DHT22;14254;50.968;5.366;2023-08-30T05:57:58;15.20;99.90
26623;DHT22;14254;50.968;5.366;2023-08-30T06:00:24;15.30;99.90
26623;DHT22;14254;50.968;5.366;2023-08-30T06:02:51;15.40;99.90
26623;DHT22;14254;50.968;5.366;2023-08-30T06:05:17;15.40;99.90
26623;DHT22;14254;50.968;5.366;2023-08-30T06:07:43;15.40;99.90
26623;DHT22;14254;50.968;5.366;2023-08-30T06:10:09;15.40;99.90
26623;DHT22;14254;50.968;5.366;2023-08-30T06:12:35;15.50;99.90
26623;DHT22;14254;50.968;5.366;2023-08-30T06:15:00;15.50;99.90
26623;DHT22;14254;50.968;5.366;2023-08-30T06:17:26;15.50;99.90
26623;DHT22;14254;50.968;5.366;2023-08-30T06:19:52;15.60;99.90
26623;DHT22;14254;50.968;5.366;2023-08-30T06:22:17;15.80;99.90
26623;DHT22;14254;50.968;5.366;2023-08-30T06:24:43;16.00;99.90
26623;DHT22;14254;50.968;5.366;2023-08-30T06:27:09;15.90;99.90
26623;DHT22;14254;50.968;5.366;2023-08-30T06:29:34;15.60;99.90
26623;DHT22;14254;50.968;5.366;2023-08-30T06:32:00;15.50;99.90
26623;DHT22;14254;50.968;5.366;2023-08-30T06:34:26;15.50;99.90
26623;DHT22;14254;50.968;5.366;2023-08-30T06:36:51;15.30;99.90
26623;DHT22;14254;50.968;5.366;2023-08-30T06:39:18;15.40;99.90
26623;DHT22;14254;50.968;5.366;2023-08-30T06:41:44;15.30;99.90
26623;DHT22;14254;50.968;5.366;2023-08-30T06:44:09;15.50;99.90
26623;DHT22;14254;50.968;5.366;2023-08-30T06:46:36;15.70;99.90
26623;DHT22;14254;50.968;5.366;2023-08-30T06:49:03;15.90;99.90
26623;DHT22;14254;50.968;5.366;2023-08-30T06:51:29;16.00;99.90
26623;DHT22;14254;50.968;5.366;2023-08-30T06:53:54;16.00;99.90
26623;DHT22;14254;50.968;5.366;2023-08-30T06:56:22;16.00;99.90
26623;DHT22;14254;50.968;5.366;2023-08-30T06:58:48;16.10;99.90
26623;DHT22;14254;50.968;5.366;2023-08-30T07:01:14;16.30;99.90
26623;DHT22;14254;50.968;5.366;2023-08-30T07:03:40;16.30;99.90
26623;DHT22;14254;50.968;5.366;2023-08-30T07:06:05;16.20;99.90
26623;DHT22;14254;50.968;5.366;2023-08-30T07:08:31;16.40;99.90
26623;DHT22;14254;50.968;5.366;2023-08-30T07:10:57;16.20;99.90
26623;DHT22;14254;50.968;5.366;2023-08-30T07:13:24;16.20;99.90
26623;DHT22;14254;50.968;5.366;2023-08-30T07:15:49;16.40;99.90
26623;DHT22;14254;50.968;5.366;2023-08-30T07:18:15;16.40;99.90
26623;DHT22;14254;50.968;5.366;2023-08-30T07:20:40;16.40;99.90
26623;DHT22;14254;50.968;5.366;2023-08-30T07:23:06;16.20;99.90
26623;DHT22;14254;50.968;5.366;2023-08-30T07:25:32;16.30;99.90
26623;DHT22;14254;50.968;5.366;2023-08-30T07:28:02;16.30;99.90
26623;DHT22;14254;50.968;5.366;2023-08-30T07:30:28;16.40;99.90
26623;DHT22;14254;50.968;5.366;2023-08-30T07:32:54;16.30;99.90
26623;DHT22;14254;50.968;5.366;2023-08-30T07:35:20;16.50;99.90
26623;DHT22;14254;50.968;5.366;2023-08-30T07:37:46;16.40;99.90
26623;DHT22;14254;50.968;5.366;2023-08-30T07:40:12;16.50;99.90
26623;DHT22;14254;50.968;5.366;2023-08-30T07:42:38;16.60;99.90
26623;DHT22;14254;50.968;5.366;2023-08-30T07:45:04;16.60;99.90
26623;DHT22;14254;50.968;5.366;2023-08-30T07:47:30;16.30;99.90
26623;DHT22;14254;50.968;5.366;2023-08-30T07:49:55;16.00;99.90
26623;DHT22;14254;50.968;5.366;2023-08-30T07:52:21;15.90;99.90
26623;DHT22;14254;50.968;5.366;2023-08-30T07:54:47;15.90;99.90
26623;DHT22;14254;50.968;5.366;2023-08-30T07:57:13;16.00;99.90
26623;DHT22;14254;50.968;5.366;2023-08-30T07:59:38;16.10;99.90
26623;DHT22;14254;50.968;5.366;2023-08-30T08:02:07;16.10;99.90
26623;DHT22;14254;50.968;5.366;2023-08-30T08:04:34;16.20;99.90
26623;DHT22;14254;50.968;5.366;2023-08-30T08:07:00;16.00;99.90
26623;DHT22;14254;50.968;5.366;2023-08-30T08:09:26;15.80;99.90
26623;DHT22;14254;50.968;5.366;2023-08-30T08:11:51;15.60;99.90
26623;DHT22;14254;50.968;5.366;2023-08-30T08:14:17;15.60;99.90
26623;DHT22;14254;50.968;5.366;2023-08-30T08:16:43;15.40;99.90
26623;DHT22;14254;50.968;5.366;2023-08-30T08:19:09;15.30;99.90
26623;DHT22;14254;50.968;5.366;2023-08-30T08:21:35;15.10;99.90
26623;DHT22;14254;50.968;5.366;2023-08-30T08:24:01;15.00;99.90
26623;DHT22;14254;50.968;5.366;2023-08-30T08:26:27;15.10;99.90
26623;DHT22;14254;50.968;5.366;2023-08-30T08:28:56;15.10;99.90
26623;DHT22;14254;50.968;5.366;2023-08-30T08:31:22;15.10;99.90
26623;DHT22;14254;50.968;5.366;2023-08-30T08:33:51;15.00;99.90
26623;DHT22;14254;50.968;5.366;2023-08-30T08:36:19;15.00;99.90
26623;DHT22;14254;50.968;5.366;2023-08-30T08:38:44;15.10;99.90
26623;DHT22;14254;50.968;5.366;2023-08-30T08:41:12;15.10;99.90
26623;DHT22;14254;50.968;5.366;2023-08-30T08:43:41;15.20;99.90
26623;DHT22;14254;50.968;5.366;2023-08-30T08:46:09;15.10;99.90
26623;DHT22;14254;50.968;5.366;2023-08-30T08:48:40;15.10;99.90
26623;DHT22;14254;50.968;5.366;2023-08-30T08:51:06;15.10;99.90
26623;DHT22;14254;50.968;5.366;2023-08-30T08:53:33;15.00;99.90
26623;DHT22;14254;50.968;5.366;2023-08-30T08:56:00;15.00;99.90
26623;DHT22;14254;50.968;5.366;2023-08-30T08:58:27;15.00;99.90
26623;DHT22;14254;50.968;5.366;2023-08-30T09:00:54;15.00;99.90
26623;DHT22;14254;50.968;5.366;2023-08-30T09:03:21;15.10;99.90
26623;DHT22;14254;50.968;5.366;2023-08-30T09:05:47;15.10;99.90
26623;DHT22;14254;50.968;5.366;2023-08-30T09:08:15;15.20;99.90
26623;DHT22;14254;50.968;5.366;2023-08-30T09:10:42;15.20;99.90
26623;DHT22;14254;50.968;5.366;2023-08-30T09:13:08;15.20;99.90
26623;DHT22;14254;50.968;5.366;2023-08-30T09:15:35;15.10;99.90
26623;DHT22;14254;50.968;5.366;2023-08-30T09:18:02;15.30;99.90
26623;DHT22;14254;50.968;5.366;2023-08-30T09:20:28;15.40;99.90
26623;DHT22;14254;50.968;5.366;2023-08-30T09:22:54;15.40;99.90
26623;DHT22;14254;50.968;5.366;2023-08-30T09:25:24;15.40;99.90
26623;DHT22;14254;50.968;5.366;2023-08-30T09:27:59;15.40;99.90
26623;DHT22;14254;50.968;5.366;2023-08-30T09:30:26;15.50;99.90
26623;DHT22;14254;50.968;5.366;2023-08-30T09:32:51;15.30;99.90
26623;DHT22;14254;50.968;5.366;2023-08-30T09:35:17;15.40;99.90
26623;DHT22;14254;50.968;5.366;2023-08-30T09:37:46;15.50;99.90
26623;DHT22;14254;50.968;5.366;2023-08-30T09:40:12;15.60;99.90
26623;DHT22;14254;50.968;5.366;2023-08-30T09:42:41;15.60;99.90
26623;DHT22;14254;50.968;5.366;2023-08-30T09:45:22;15.60;99.90
26623;DHT22;14254;50.968;5.366;2023-08-30T09:47:51;15.70;99.90
26623;DHT22;14254;50.968;5.366;2023-08-30T09:50:19;15.70;99.90
26623;DHT22;14254;50.968;5.366;2023-08-30T09:52:49;15.60;99.90
26623;DHT22;14254;50.968;5.366;2023-08-30T09:55:15;15.70;99.90
26623;DHT22;14254;50.968;5.366;2023-08-30T09:57:44;15.60;99.90
26623;DHT22;14254;50.968;5.366;2023-08-30T10:00:10;15.50;99.90
26623;DHT22;14254;50.968;5.366;2023-08-30T10:02:41;15.60;99.90
26623;DHT22;14254;50.968;5.366;2023-08-30T10:05:10;15.60;99.90
26623;DHT22;14254;50.968;5.366;2023-08-30T10:07:36;15.60;99.90
26623;DHT22;14254;50.968;5.366;2023-08-30T10:10:06;15.60;99.90
26623;DHT22;14254;50.968;5.366;2023-08-30T10:12:33;15.90;99.90
26623;DHT22;14254;50.968;5.366;2023-08-30T10:14:59;16.10;99.90
26623;DHT22;14254;50.968;5.366;2023-08-30T10:17:28;16.10;99.90
26623;DHT22;14254;50.968;5.366;2023-08-30T10:19:55;16.10;99.90
26623;DHT22;14254;50.968;5.366;2023-08-30T10:22:22;16.10;99.90
26623;DHT22;14254;50.968;5.366;2023-08-30T10:24:52;16.20;99.90
26623;DHT22;14254;50.968;5.366;2023-08-30T10:27:20;16.20;99.90
26623;DHT22;14254;50.968;5.366;2023-08-30T10:29:48;16.30;99.90
26623;DHT22;14254;50.968;5.366;2023-08-30T10:32:22;16.40;99.90
26623;DHT22;14254;50.968;5.366;2023-08-30T10:34:51;16.40;99.90
26623;DHT22;14254;50.968;5.366;2023-08-30T10:37:22;16.40;99.90
26623;DHT22;14254;50.968;5.366;2023-08-30T10:39:52;16.30;99.90
26623;DHT22;14254;50.968;5.366;2023-08-30T10:42:22;16.20;99.90
26623;DHT22;14254;50.968;5.366;2023-08-30T10:44:49;16.00;99.90
26623;DHT22;14254;50.968;5.366;2023-08-30T10:47:27;15.90;99.90
26623;DHT22;14254;50.968;5.366;2023-08-30T10:50:00;15.90;99.90
26623;DHT22;14254;50.968;5.366;2023-08-30T10:52:27;16.00;99.90
26623;DHT22;14254;50.968;5.366;2023-08-30T10:55:14;16.00;99.90
26623;DHT22;14254;50.968;5.366;2023-08-30T10:57:44;16.10;99.90
26623;DHT22;14254;50.968;5.366;2023-08-30T11:02:44;16.30;99.90
26623;DHT22;14254;50.968;5.366;2023-08-30T11:05:15;16.40;99.90
26623;DHT22;14254;50.968;5.366;2023-08-30T11:07:45;16.50;99.90
26623;DHT22;14254;50.968;5.366;2023-08-30T11:10:12;16.70;99.90
26623;DHT22;14254;50.968;5.366;2023-08-30T11:12:40;16.80;99.90
26623;DHT22;14254;50.968;5.366;2023-08-30T11:15:07;16.90;99.90
26623;DHT22;14254;50.968;5.366;2023-08-30T11:17:34;17.00;99.90
26623;DHT22;14254;50.968;5.366;2023-08-30T11:20:14;17.10;99.90
26623;DHT22;14254;50.968;5.366;2023-08-30T11:22:42;17.10;99.90
26623;DHT22;14254;50.968;5.366;2023-08-30T11:25:09;17.20;99.90
26623;DHT22;14254;50.968;5.366;2023-08-30T11:27:35;17.30;99.90
26623;DHT22;14254;50.968;5.366;2023-08-30T11:30:02;17.20;99.90
26623;DHT22;14254;50.968;5.366;2023-08-30T11:32:38;17.10;99.90
26623;DHT22;14254;50.968;5.366;2023-08-30T11:35:05;17.20;99.90
26623;DHT22;14254;50.968;5.366;2023-08-30T11:37:31;17.30;99.90
26623;DHT22;14254;50.968;5.366;2023-08-30T11:39:57;17.50;99.90
26623;DHT22;14254;50.968;5.366;2023-08-30T11:42:23;17.70;99.90
26623;DHT22;14254;50.968;5.366;2023-08-30T11:44:50;17.70;99.90
26623;DHT22;14254;50.968;5.366;2023-08-30T11:47:23;17.70;99.90
26623;DHT22;14254;50.968;5.366;2023-08-30T11:49:51;17.60;99.90
26623;DHT22;14254;50.968;5.366;2023-08-30T11:52:18;17.70;99.90
26623;DHT22;14254;50.968;5.366;2023-08-30T11:54:44;17.90;99.90
26623;DHT22;14254;50.968;5.366;2023-08-30T11:57:10;18.00;99.90
26623;DHT22;14254;50.968;5.366;2023-08-30T11:59:36;17.90;99.90
26623;DHT22;14254;50.968;5.366;2023-08-30T12:02:06;17.80;99.90
26623;DHT22;14254;50.968;5.366;2023-08-30T12:04:32;17.70;99.90
26623;DHT22;14254;50.968;5.366;2023-08-30T12:06:58;17.60;99.90
26623;DHT22;14254;50.968;5.366;2023-08-30T12:09:33;17.60;99.90
26623;DHT22;14254;50.968;5.366;2023-08-30T12:12:06;17.60;99.90
26623;DHT22;14254;50.968;5.366;2023-08-30T12:14:35;17.60;99.90
26623;DHT22;14254;50.968;5.366;2023-08-30T12:17:01;17.80;99.90
26623;DHT22;14254;50.968;5.366;2023-08-30T12:19:28;17.90;99.90
26623;DHT22;14254;50.968;5.366;2023-08-30T12:21:54;17.90;99.90
26623;DHT22;14254;50.968;5.366;2023-08-30T12:24:19;18.00;99.90
26623;DHT22;14254;50.968;5.366;2023-08-30T12:26:45;18.00;99.90
26623;DHT22;14254;50.968;5.366;2023-08-30T12:29:10;18.00;99.90
26623;DHT22;14254;50.968;5.366;2023-08-30T12:31:36;17.90;99.90
26623;DHT22;14254;50.968;5.366;2023-08-30T12:34:03;17.90;99.90
26623;DHT22;14254;50.968;5.366;2023-08-30T12:36:29;18.00;99.90
26623;DHT22;14254;50.968;5.366;2023-08-30T12:38:54;18.10;99.90
26623;DHT22;14254;50.968;5.366;2023-08-30T12:41:23;18.10;99.90
26623;DHT22;14254;50.968;5.366;2023-08-30T12:43:49;18.10;99.90
26623;DHT22;14254;50.968;5.366;2023-08-30T12:46:16;18.00;99.90
26623;DHT22;14254;50.968;5.366;2023-08-30T12:48:42;18.20;99.90
26623;DHT22;14254;50.968;5.366;2023-08-30T12:51:08;18.30;99.90
26623;DHT22;14254;50.968;5.366;2023-08-30T12:53:33;18.50;99.90
26623;DHT22;14254;50.968;5.366;2023-08-30T12:55:59;18.40;99.90
26623;DHT22;14254;50.968;5.366;2023-08-30T12:58:25;18.30;99.90
26623;DHT22;14254;50.968;5.366;2023-08-30T13:00:50;18.20;99.90
26623;DHT22;14254;50.968;5.366;2023-08-30T13:03:16;18.10;99.90
26623;DHT22;14254;50.968;5.366;2023-08-30T13:05:41;18.00;99.90
26623;DHT22;14254;50.968;5.366;2023-08-30T13:08:07;17.80;99.90
26623;DHT22;14254;50.968;5.366;2023-08-30T13:10:33;17.80;99.90
26623;DHT22;14254;50.968;5.366;2023-08-30T13:12:59;17.80;99.90
26623;DHT22;14254;50.968;5.366;2023-08-30T13:15:25;17.80;99.90
26623;DHT22;14254;50.968;5.366;2023-08-30T13:17:50;17.70;99.90
26623;DHT22;14254;50.968;5.366;2023-08-30T13:20:18;17.70;99.90
26623;DHT22;14254;50.968;5.366;2023-08-30T13:22:43;17.80;99.90
26623;DHT22;14254;50.968;5.366;2023-08-30T13:25:09;17.90;99.90
26623;DHT22;14254;50.968;5.366;2023-08-30T13:27:35;17.90;99.90
26623;DHT22;14254;50.968;5.366;2023-08-30T13:30:00;18.10;99.90
26623;DHT22;14254;50.968;5.366;2023-08-30T13:32:26;18.30;99.90
26623;DHT22;14254;50.968;5.366;2023-08-30T13:34:52;18.70;99.90
26623;DHT22;14254;50.968;5.366;2023-08-30T13:37:18;19.20;99.90
26623;DHT22;14254;50.968;5.366;2023-08-30T13:39:43;19.50;99.90
26623;DHT22;14254;50.968;5.366;2023-08-30T13:42:09;19.70;99.90
26623;DHT22;14254;50.968;5.366;2023-08-30T13:44:35;20.20;99.90
26623;DHT22;14254;50.968;5.366;2023-08-30T13:47:04;20.50;99.90
26623;DHT22;14254;50.968;5.366;2023-08-30T13:49:30;22.00;99.90
26623;DHT22;14254;50.968;5.366;2023-08-30T13:51:57;24.30;99.90
26623;DHT22;14254;50.968;5.366;2023-08-30T13:54:22;26.20;99.90
26623;DHT22;14254;50.968;5.366;2023-08-30T13:56:48;27.30;99.90
26623;DHT22;14254;50.968;5.366;2023-08-30T13:59:14;27.90;99.90
26623;DHT22;14254;50.968;5.366;2023-08-30T14:01:40;30.00;99.10
26623;DHT22;14254;50.968;5.366;2023-08-30T14:04:05;31.00;97.50
26623;DHT22;14254;50.968;5.366;2023-08-30T14:06:32;31.40;93.20
26623;DHT22;14254;50.968;5.366;2023-08-30T14:08:58;32.50;88.40
26623;DHT22;14254;50.968;5.366;2023-08-30T14:11:23;31.70;85.80
26623;DHT22;14254;50.968;5.366;2023-08-30T14:13:49;30.60;83.80
26623;DHT22;14254;50.968;5.366;2023-08-30T14:16:15;31.00;85.60
26623;DHT22;14254;50.968;5.366;2023-08-30T14:18:40;31.70;79.80
26623;DHT22;14254;50.968;5.366;2023-08-30T14:21:06;32.10;71.70
26623;DHT22;14254;50.968;5.366;2023-08-30T14:23:32;31.10;71.20
26623;DHT22;14254;50.968;5.366;2023-08-30T14:26:05;31.30;71.60
26623;DHT22;14254;50.968;5.366;2023-08-30T14:28:38;30.10;73.90
26623;DHT22;14254;50.968;5.366;2023-08-30T14:31:07;30.40;70.80
26623;DHT22;14254;50.968;5.366;2023-08-30T14:33:33;29.80;72.30
26623;DHT22;14254;50.968;5.366;2023-08-30T14:36:02;29.90;71.60
26623;DHT22;14254;50.968;5.366;2023-08-30T14:38:28;31.00;70.60
26623;DHT22;14254;50.968;5.366;2023-08-30T14:40:58;31.20;68.90
26623;DHT22;14254;50.968;5.366;2023-08-30T14:43:25;30.80;72.60
26623;DHT22;14254;50.968;5.366;2023-08-30T14:45:51;31.00;69.30
26623;DHT22;14254;50.968;5.366;2023-08-30T14:48:17;31.40;66.70
26623;DHT22;14254;50.968;5.366;2023-08-30T14:50:42;31.80;65.00
26623;DHT22;14254;50.968;5.366;2023-08-30T14:53:08;31.00;66.50
26623;DHT22;14254;50.968;5.366;2023-08-30T14:55:34;31.40;66.60
26623;DHT22;14254;50.968;5.366;2023-08-30T14:57:59;30.60;66.70
26623;DHT22;14254;50.968;5.366;2023-08-30T15:00:25;31.40;67.80
26623;DHT22;14254;50.968;5.366;2023-08-30T15:02:51;31.30;69.50
26623;DHT22;14254;50.968;5.366;2023-08-30T15:05:17;31.30;67.40
26623;DHT22;14254;50.968;5.366;2023-08-30T15:07:43;29.40;71.10
26623;DHT22;14254;50.968;5.366;2023-08-30T15:10:09;28.70;73.40
26623;DHT22;14254;50.968;5.366;2023-08-30T15:12:36;27.90;73.50
26623;DHT22;14254;50.968;5.366;2023-08-30T15:15:02;27.70;73.70
26623;DHT22;14254;50.968;5.366;2023-08-30T15:17:28;26.20;78.70
26623;DHT22;14254;50.968;5.366;2023-08-30T15:19:54;25.50;82.20
26623;DHT22;14254;50.968;5.366;2023-08-30T15:22:20;24.70;86.70
26623;DHT22;14254;50.968;5.366;2023-08-30T15:24:45;24.70;89.70
26623;DHT22;14254;50.968;5.366;2023-08-30T15:27:11;24.20;91.30
26623;DHT22;14254;50.968;5.366;2023-08-30T15:29:36;23.90;91.10
26623;DHT22;14254;50.968;5.366;2023-08-30T15:32:02;23.50;93.90